createdAt,value
2023-09-26T00:01:45.985Z,16.02
2023-09-26T00:04:12.391Z,15.96
2023-09-26T00:06:38.973Z,15.99
2023-09-26T00:09:05.360Z,15.87
2023-09-26T00:11:31.699Z,15.81
2023-09-26T00:13:58.041Z,15.68
2023-09-26T00:16:24.528Z,15.80
2023-09-26T00:18:50.992Z,15.71
2023-09-26T00:21:17.363Z,15.54
2023-09-26T00:23:43.747Z,15.60
2023-09-26T00:26:10.071Z,15.74
2023-09-26T00:28:36.440Z,15.76
2023-09-26T00:31:02.882Z,15.65
2023-09-26T00:33:29.247Z,15.55
2023-09-26T00:35:55.598Z,15.42
2023-09-26T00:38:22.043Z,15.53
2023-09-26T00:40:48.392Z,15.57
2023-09-26T00:43:14.776Z,15.43
2023-09-26T00:45:41.278Z,15.32
2023-09-26T00:48:07.702Z,15.26
2023-09-26T00:50:34.083Z,15.27
2023-09-26T00:53:00.485Z,15.29
2023-09-26T00:55:26.874Z,15.27
2023-09-26T00:57:53.267Z,15.23
2023-09-26T01:00:19.646Z,15.20
2023-09-26T01:02:46.120Z,15.21
2023-09-26T01:05:12.562Z,15.17
2023-09-26T01:07:38.946Z,15.27
2023-09-26T01:10:05.375Z,15.07
2023-09-26T01:12:31.746Z,15.09
2023-09-26T01:14:58.141Z,15.11
2023-09-26T01:17:24.548Z,15.06
2023-09-26T01:19:50.945Z,15.15
2023-09-26T01:22:17.338Z,15.21
2023-09-26T01:24:43.738Z,15.06
2023-09-26T01:27:10.074Z,15.16
2023-09-26T01:29:36.448Z,15.13
2023-09-26T01:32:02.837Z,15.04
2023-09-26T01:34:29.316Z,15.02
2023-09-26T01:36:55.730Z,14.79
2023-09-26T01:39:22.150Z,14.84
2023-09-26T01:41:48.508Z,14.87
2023-09-26T01:44:14.892Z,14.90
2023-09-26T01:46:41.374Z,14.84
2023-09-26T01:49:07.805Z,14.78
2023-09-26T01:51:34.193Z,14.78
2023-09-26T01:54:00.537Z,14.90
2023-09-26T01:56:26.885Z,15.03
2023-09-26T01:58:53.275Z,15.08
2023-09-26T02:01:20.812Z,14.96
2023-09-26T02:03:47.311Z,14.81
2023-09-26T02:06:13.769Z,14.78
2023-09-26T02:08:40.119Z,14.76
2023-09-26T02:11:06.462Z,14.94
2023-09-26T02:13:32.903Z,14.98
2023-09-26T02:15:59.394Z,15.02
2023-09-26T02:18:25.823Z,15.08
2023-09-26T02:20:52.255Z,15.07
2023-09-26T02:23:18.624Z,15.10
2023-09-26T02:25:44.969Z,15.06
2023-09-26T02:28:11.354Z,15.04
2023-09-26T02:30:37.751Z,15.05
2023-09-26T02:33:04.129Z,14.94
2023-09-26T02:35:30.520Z,14.99
2023-09-26T02:37:56.855Z,14.92
2023-09-26T02:40:23.283Z,15.05
2023-09-26T02:42:49.732Z,14.94
2023-09-26T02:45:16.112Z,14.84
2023-09-26T02:47:42.517Z,14.74
2023-09-26T02:50:08.970Z,14.71
2023-09-26T02:52:35.320Z,14.83
2023-09-26T02:55:01.729Z,14.65
2023-09-26T02:57:28.142Z,14.70
2023-09-26T02:59:54.494Z,14.54
2023-09-26T03:02:20.847Z,14.72
2023-09-26T03:04:47.635Z,14.66
2023-09-26T03:07:14.057Z,14.45
2023-09-26T03:09:40.421Z,14.55
2023-09-26T03:12:06.812Z,14.57
2023-09-26T03:14:33.183Z,14.75
2023-09-26T03:16:59.738Z,14.74
2023-09-26T03:19:26.186Z,14.68
2023-09-26T03:21:52.588Z,14.79
2023-09-26T03:24:19.014Z,14.75
2023-09-26T03:26:45.394Z,14.75
2023-09-26T03:29:11.739Z,14.73
2023-09-26T03:31:38.215Z,14.64
2023-09-26T03:34:04.608Z,14.78
2023-09-26T03:36:30.960Z,14.70
2023-09-26T03:38:57.294Z,14.73
2023-09-26T03:41:23.666Z,14.65
2023-09-26T03:43:50.160Z,14.73
2023-09-26T03:46:16.785Z,14.64
2023-09-26T03:48:43.174Z,14.65
2023-09-26T03:51:09.523Z,14.49
2023-09-26T03:53:35.874Z,14.45
2023-09-26T03:56:02.303Z,14.38
2023-09-26T03:58:28.743Z,14.23
2023-09-26T04:00:55.190Z,14.24
2023-09-26T04:03:23.356Z,14.05
2023-09-26T04:05:49.862Z,13.98
2023-09-26T04:08:16.246Z,14.00
2023-09-26T04:10:42.647Z,14.04
2023-09-26T04:13:09.006Z,14.00
2023-09-26T04:15:35.394Z,14.01
2023-09-26T04:18:01.870Z,14.05
2023-09-26T04:20:37.058Z,14.02
2023-09-26T04:23:04.241Z,13.77
2023-09-26T04:25:30.668Z,13.93
2023-09-26T04:27:57.141Z,13.88
2023-09-26T04:30:23.591Z,13.81
2023-09-26T04:32:50.015Z,13.89
2023-09-26T04:35:16.390Z,13.96
2023-09-26T04:37:42.834Z,13.98
2023-09-26T04:40:09.220Z,13.92
2023-09-26T04:42:35.580Z,13.91
2023-09-26T04:45:02.025Z,13.93
2023-09-26T04:47:28.506Z,13.88
2023-09-26T04:49:57.426Z,14.06
2023-09-26T04:52:24.807Z,13.85
2023-09-26T04:54:51.241Z,13.91
2023-09-26T04:57:17.595Z,13.91
2023-09-26T04:59:43.960Z,13.82
2023-09-26T05:02:10.343Z,13.73
2023-09-26T05:04:36.741Z,13.95
2023-09-26T05:07:03.157Z,13.96
2023-09-26T05:09:29.550Z,14.02
2023-09-26T05:11:55.888Z,13.94
2023-09-26T05:14:22.277Z,13.96
2023-09-26T05:16:48.714Z,14.25
2023-09-26T05:19:15.209Z,14.51
2023-09-26T05:21:41.705Z,14.55
2023-09-26T05:24:08.061Z,14.57
2023-09-26T05:26:34.434Z,14.68
2023-09-26T05:29:00.805Z,14.65
2023-09-26T05:31:27.212Z,14.77
2023-09-26T05:33:53.892Z,14.66
2023-09-26T05:36:20.383Z,14.67
2023-09-26T05:38:46.722Z,14.64
2023-09-26T05:41:13.158Z,14.63
2023-09-26T05:43:39.525Z,14.62
2023-09-26T05:46:05.988Z,14.57
2023-09-26T05:48:32.394Z,14.63
2023-09-26T05:50:58.767Z,14.66
2023-09-26T05:53:25.129Z,14.68
2023-09-26T05:55:53.667Z,14.76
2023-09-26T05:58:22.047Z,14.81
2023-09-26T06:00:48.469Z,14.83
2023-09-26T06:03:14.881Z,14.84
2023-09-26T06:05:41.339Z,14.70
2023-09-26T06:08:07.750Z,14.62
2023-09-26T06:10:34.114Z,14.82
2023-09-26T06:13:00.539Z,14.89
2023-09-26T06:15:26.925Z,14.87
2023-09-26T06:17:53.309Z,14.95
2023-09-26T06:20:19.717Z,15.04
2023-09-26T06:22:46.063Z,14.95
2023-09-26T06:25:12.499Z,15.01
2023-09-26T06:27:38.921Z,15.03
2023-09-26T06:30:05.267Z,15.26
2023-09-26T06:32:31.700Z,15.31
2023-09-26T06:34:58.082Z,15.27
2023-09-26T06:37:24.505Z,15.28
2023-09-26T06:39:50.890Z,15.28
2023-09-26T06:42:17.290Z,15.21
2023-09-26T06:44:43.659Z,15.20
2023-09-26T06:47:10.042Z,15.25
2023-09-26T06:49:36.455Z,15.16
2023-09-26T06:52:02.850Z,15.23
2023-09-26T06:54:29.249Z,15.23
2023-09-26T06:56:55.632Z,15.22
2023-09-26T06:59:22.256Z,15.22
2023-09-26T07:01:48.668Z,15.18
2023-09-26T07:04:15.220Z,15.26
2023-09-26T07:06:41.920Z,15.26
2023-09-26T07:09:08.281Z,15.32
2023-09-26T07:11:34.647Z,15.50
2023-09-26T07:14:01.155Z,15.53
2023-09-26T07:16:27.853Z,15.52
2023-09-26T07:18:54.534Z,15.56
2023-09-26T07:21:21.101Z,15.65
2023-09-26T07:23:47.449Z,15.62
2023-09-26T07:26:15.687Z,15.68
2023-09-26T07:28:42.712Z,15.82
2023-09-26T07:31:09.273Z,15.71
2023-09-26T07:33:35.728Z,15.72
2023-09-26T07:36:02.101Z,15.68
2023-09-26T07:38:28.455Z,15.86
2023-09-26T07:40:54.856Z,15.76
2023-09-26T07:43:21.379Z,15.85
2023-09-26T07:45:47.900Z,15.90
2023-09-26T07:48:14.321Z,15.82
2023-09-26T07:50:40.675Z,15.91
2023-09-26T07:53:07.037Z,16.05
2023-09-26T07:55:33.414Z,16.14
2023-09-26T07:57:59.816Z,16.14
2023-09-26T08:00:26.198Z,16.03
2023-09-26T08:02:52.726Z,16.03
2023-09-26T08:05:19.189Z,15.95
2023-09-26T08:07:45.789Z,16.14
2023-09-26T08:10:12.237Z,16.05
2023-09-26T08:12:38.636Z,16.13
2023-09-26T08:15:04.985Z,16.18
2023-09-26T08:17:31.375Z,16.23
2023-09-26T08:19:57.831Z,16.26
2023-09-26T08:22:24.201Z,16.50
2023-09-26T08:24:50.720Z,16.64
2023-09-26T08:27:17.302Z,16.84
2023-09-26T08:29:43.685Z,17.13
2023-09-26T08:32:10.154Z,17.47
2023-09-26T08:34:36.561Z,17.40
2023-09-26T08:37:02.962Z,17.67
2023-09-26T08:39:29.337Z,17.76
2023-09-26T08:41:55.694Z,17.98
2023-09-26T08:44:22.027Z,18.31
2023-09-26T08:46:48.516Z,18.25
2023-09-26T08:49:14.980Z,18.27
2023-09-26T08:51:41.376Z,18.64
2023-09-26T08:54:09.036Z,18.99
2023-09-26T08:56:36.758Z,18.79
2023-09-26T08:59:04.203Z,19.21
2023-09-26T09:01:30.621Z,19.33
2023-09-26T09:03:57.157Z,19.41
2023-09-26T09:06:23.532Z,19.65
2023-09-26T09:08:50.164Z,20.04
2023-09-26T09:11:16.668Z,20.19
2023-09-26T09:13:43.030Z,20.19
2023-09-26T09:16:09.517Z,20.45
2023-09-26T09:18:35.882Z,20.37
2023-09-26T09:21:02.224Z,20.41
2023-09-26T09:25:54.908Z,20.28
2023-09-26T09:28:21.312Z,20.59
2023-09-26T09:30:47.749Z,21.03
2023-09-26T09:33:14.233Z,20.92
2023-09-26T09:35:40.626Z,21.03
2023-09-26T09:38:07.014Z,21.41
2023-09-26T09:40:33.385Z,21.84
2023-09-26T09:42:59.745Z,22.23
2023-09-26T09:45:27.129Z,22.83
2023-09-26T09:47:53.636Z,23.48
2023-09-26T09:50:19.983Z,23.61
2023-09-26T09:52:46.358Z,23.95
2023-09-26T09:55:12.738Z,23.16
2023-09-26T09:57:39.137Z,24.01
2023-09-26T10:00:05.536Z,24.30
2023-09-26T10:02:31.953Z,24.25
2023-09-26T10:04:58.423Z,24.33
2023-09-26T10:07:24.844Z,24.04
2023-09-26T10:09:51.237Z,23.73
2023-09-26T10:12:17.718Z,23.25
2023-09-26T10:14:44.283Z,22.81
2023-09-26T10:17:10.799Z,22.08
2023-09-26T10:19:54.566Z,22.88
2023-09-26T10:22:23.707Z,22.64
2023-09-26T10:24:50.079Z,22.92
2023-09-26T10:27:27.165Z,22.69
2023-09-26T10:29:54.860Z,23.46
2023-09-26T10:32:21.247Z,23.38
2023-09-26T10:37:33.937Z,23.46
2023-09-26T10:40:00.318Z,23.50
2023-09-26T10:43:07.950Z,23.31
2023-09-26T10:45:13.075Z,22.84
2023-09-26T10:47:39.487Z,23.05
2023-09-26T10:50:05.915Z,22.82
2023-09-26T10:52:32.330Z,23.13
2023-09-26T10:54:58.750Z,23.41
2023-09-26T10:57:25.122Z,23.49
2023-09-26T10:59:51.492Z,23.48
2023-09-26T11:02:17.867Z,23.52
2023-09-26T11:04:44.896Z,23.43
2023-09-26T11:07:11.574Z,23.22
2023-09-26T11:09:38.081Z,23.18
2023-09-26T11:12:04.443Z,23.28
2023-09-26T11:14:30.837Z,23.71
2023-09-26T11:16:57.703Z,23.74
2023-09-26T11:19:24.085Z,24.22
2023-09-26T11:21:50.450Z,24.04
2023-09-26T11:24:16.791Z,24.16
2023-09-26T11:26:43.130Z,24.24
2023-09-26T11:29:09.533Z,24.39
2023-09-26T11:31:35.993Z,24.14
2023-09-26T11:34:02.396Z,24.29
2023-09-26T11:36:28.754Z,24.14
2023-09-26T11:38:55.121Z,23.61
2023-09-26T11:41:26.666Z,23.50
2023-09-26T11:43:58.604Z,23.72
2023-09-26T11:46:24.996Z,23.94
2023-09-26T11:48:51.356Z,23.65
2023-09-26T11:51:17.736Z,23.59
2023-09-26T11:53:44.083Z,23.31
2023-09-26T11:56:10.413Z,23.50
2023-09-26T11:58:36.789Z,23.53
2023-09-26T12:01:03.164Z,23.35
2023-09-26T12:03:29.540Z,23.48
2023-09-26T12:05:56.021Z,23.88
2023-09-26T12:08:22.369Z,23.68
2023-09-26T12:10:48.716Z,23.88
2023-09-26T12:13:15.288Z,23.89
2023-09-26T12:15:41.670Z,23.77
2023-09-26T12:18:08.111Z,23.76
2023-09-26T12:20:34.602Z,23.46
2023-09-26T12:23:01.040Z,23.28
2023-09-26T12:25:27.477Z,23.19
2023-09-26T12:27:53.991Z,23.48
2023-09-26T12:30:20.336Z,24.05
2023-09-26T12:32:47.247Z,24.03
2023-09-26T12:35:13.670Z,23.57
2023-09-26T12:37:40.060Z,23.29
2023-09-26T12:40:06.409Z,23.82
2023-09-26T12:42:32.774Z,23.79
2023-09-26T12:44:59.120Z,23.60
2023-09-26T12:47:25.747Z,23.54
2023-09-26T12:49:52.290Z,23.33
2023-09-26T12:52:18.677Z,23.69
2023-09-26T12:54:45.024Z,23.56
2023-09-26T12:57:11.418Z,23.57
2023-09-26T12:59:38.040Z,23.57
2023-09-26T13:02:04.450Z,23.68
2023-09-26T13:04:30.909Z,23.56
2023-09-26T13:06:57.352Z,23.55
2023-09-26T13:09:23.722Z,23.26
2023-09-26T13:11:50.096Z,23.49
2023-09-26T13:14:16.519Z,23.45
2023-09-26T13:16:42.925Z,23.49
2023-09-26T13:19:09.361Z,23.25
2023-09-26T13:21:35.705Z,23.31
2023-09-26T13:24:02.179Z,23.12
2023-09-26T13:26:28.719Z,22.90
2023-09-26T13:28:55.910Z,23.07
2023-09-26T13:31:22.415Z,23.08
2023-09-26T13:33:48.815Z,23.05
2023-09-26T13:36:15.159Z,22.75
2023-09-26T13:38:41.519Z,22.69
2023-09-26T13:41:07.933Z,22.95
2023-09-26T13:43:34.536Z,22.90
2023-09-26T13:46:00.917Z,23.03
2023-09-26T13:48:27.293Z,22.90
2023-09-26T13:50:53.660Z,22.85
2023-09-26T13:53:20.011Z,22.82
2023-09-26T13:55:46.429Z,22.89
2023-09-26T13:58:12.794Z,22.91
2023-09-26T14:00:39.138Z,22.92
2023-09-26T14:03:05.655Z,22.79
2023-09-26T14:05:32.147Z,22.87
2023-09-26T14:07:58.637Z,22.65
2023-09-26T14:10:25.711Z,22.65
2023-09-26T14:12:52.177Z,22.70
2023-09-26T14:15:18.567Z,22.74
2023-09-26T14:17:44.972Z,22.72
2023-09-26T14:20:11.411Z,22.81
2023-09-26T14:22:37.824Z,22.64
2023-09-26T14:25:04.220Z,22.61
2023-09-26T14:27:30.568Z,22.57
2023-09-26T14:29:56.906Z,22.62
2023-09-26T14:32:23.447Z,22.74
2023-09-26T14:34:49.943Z,22.61
2023-09-26T14:37:16.389Z,22.65
2023-09-26T14:39:42.766Z,22.62
2023-09-26T14:42:09.126Z,22.58
2023-09-26T14:44:35.546Z,22.57
2023-09-26T14:47:02.042Z,22.58
2023-09-26T14:49:28.443Z,22.52
2023-09-26T14:51:54.791Z,22.32
2023-09-26T14:54:21.163Z,22.51
2023-09-26T14:56:47.688Z,22.23
2023-09-26T14:59:14.075Z,22.16
2023-09-26T15:01:40.532Z,22.37
2023-09-26T15:04:07.076Z,22.41
2023-09-26T15:06:33.712Z,22.44
2023-09-26T15:09:00.109Z,22.55
2023-09-26T15:11:26.544Z,22.60
2023-09-26T15:13:52.947Z,22.53
2023-09-26T15:16:19.387Z,22.63
2023-09-26T15:18:45.777Z,22.58
2023-09-26T15:21:12.108Z,22.57
2023-09-26T15:23:38.484Z,22.47
2023-09-26T15:26:04.907Z,22.47
2023-09-26T15:28:31.289Z,22.41
2023-09-26T15:30:57.693Z,22.22
2023-09-26T15:33:24.107Z,22.19
2023-09-26T15:35:50.658Z,21.87
2023-09-26T15:38:17.109Z,21.79
2023-09-26T15:40:43.582Z,21.89
2023-09-26T15:43:09.961Z,22.01
2023-09-26T15:45:36.352Z,21.85
2023-09-26T15:48:02.793Z,22.09
2023-09-26T15:50:29.257Z,21.95
2023-09-26T15:52:55.711Z,22.11
2023-09-26T15:55:22.072Z,22.23
2023-09-26T15:57:48.451Z,22.22
2023-09-26T16:00:14.821Z,22.17
2023-09-26T16:02:41.275Z,22.29
2023-09-26T16:05:07.748Z,22.34
2023-09-26T16:07:34.239Z,22.32
2023-09-26T16:10:00.598Z,22.33
2023-09-26T16:12:27.017Z,22.35
2023-09-26T16:14:53.410Z,22.33
2023-09-26T16:17:19.842Z,22.27
2023-09-26T16:19:46.285Z,22.20
2023-09-26T16:22:12.662Z,22.24
2023-09-26T16:24:39.017Z,22.18
2023-09-26T16:27:05.374Z,22.21
2023-09-26T16:29:32.019Z,22.23
2023-09-26T16:31:58.551Z,22.20
2023-09-26T16:34:24.987Z,22.15
2023-09-26T16:36:51.390Z,22.09
2023-09-26T16:39:17.759Z,22.13
2023-09-26T16:41:44.102Z,22.05
2023-09-26T16:44:11.019Z,22.06
2023-09-26T16:46:37.581Z,21.98
2023-09-26T16:49:04.184Z,21.95
2023-09-26T16:51:30.920Z,21.92
2023-09-26T16:53:57.291Z,21.83
2023-09-26T16:56:23.631Z,21.74
2023-09-26T16:58:50.041Z,21.64
2023-09-26T17:01:16.427Z,21.61
2023-09-26T17:03:42.764Z,21.63
2023-09-26T17:06:09.177Z,21.56
2023-09-26T17:08:35.594Z,21.42
2023-09-26T17:11:02.040Z,21.35
2023-09-26T17:13:28.460Z,21.35
2023-09-26T17:15:54.812Z,21.34
2023-09-26T17:18:21.192Z,21.41
2023-09-26T17:20:47.574Z,21.45
2023-09-26T17:23:13.917Z,21.40
2023-09-26T17:25:40.280Z,21.34
2023-09-26T17:28:06.680Z,21.36
2023-09-26T17:30:33.031Z,21.45
2023-09-26T17:32:59.422Z,21.45
2023-09-26T17:35:25.801Z,21.33
2023-09-26T17:37:52.195Z,21.28
2023-09-26T17:40:18.559Z,21.27
2023-09-26T17:42:44.940Z,21.14
2023-09-26T17:45:11.330Z,21.02
2023-09-26T17:47:40.223Z,21.15
2023-09-26T17:50:06.664Z,21.18
2023-09-26T17:52:33.087Z,21.10
2023-09-26T17:54:59.455Z,21.09
2023-09-26T17:57:25.872Z,21.07
2023-09-26T17:59:52.255Z,20.97
2023-09-26T18:02:18.615Z,21.00
2023-09-26T18:04:45.034Z,21.02
2023-09-26T18:07:11.411Z,21.04
2023-09-26T18:09:37.748Z,20.99
2023-09-26T18:12:04.120Z,20.90
2023-09-26T18:14:30.459Z,20.99
2023-09-26T18:16:56.837Z,20.98
2023-09-26T18:19:23.242Z,20.91
2023-09-26T18:21:49.584Z,21.00
2023-09-26T18:24:15.925Z,20.99
2023-09-26T18:26:42.344Z,20.96
2023-09-26T18:29:08.746Z,20.94
2023-09-26T18:31:35.127Z,20.96
2023-09-26T18:34:01.526Z,21.00
2023-09-26T18:36:27.892Z,20.86
2023-09-26T18:38:54.239Z,20.74
2023-09-26T18:41:22.022Z,20.59
2023-09-26T18:43:48.701Z,20.39
2023-09-26T18:46:15.143Z,20.23
2023-09-26T18:48:41.775Z,20.19
2023-09-26T18:51:08.152Z,20.10
2023-09-26T18:53:34.583Z,20.06
2023-09-26T18:56:01.048Z,19.95
2023-09-26T18:58:27.449Z,20.04
2023-09-26T19:00:53.797Z,19.94
2023-09-26T19:03:20.390Z,19.97
2023-09-26T19:05:47.007Z,19.90
2023-09-26T19:08:13.486Z,19.81
2023-09-26T19:10:39.967Z,19.79
2023-09-26T19:13:06.350Z,19.69
2023-09-26T19:15:32.754Z,19.69
2023-09-26T19:17:59.175Z,19.64
2023-09-26T19:20:25.562Z,19.64
2023-09-26T19:22:51.972Z,19.63
2023-09-26T19:25:18.353Z,19.59
2023-09-26T19:27:44.734Z,19.65
2023-09-26T19:30:11.085Z,19.56
2023-09-26T19:32:37.527Z,19.55
2023-09-26T19:35:03.970Z,19.58
2023-09-26T19:37:30.384Z,19.48
2023-09-26T19:39:56.775Z,19.41
2023-09-26T19:42:23.156Z,19.40
2023-09-26T19:44:49.515Z,19.32
2023-09-26T19:47:15.989Z,19.36
2023-09-26T19:49:42.416Z,19.39
2023-09-26T19:52:08.820Z,19.36
2023-09-26T19:54:35.218Z,19.37
2023-09-26T19:57:01.592Z,19.28
2023-09-26T19:59:28.019Z,19.24
2023-09-26T20:01:54.414Z,19.19
2023-09-26T20:04:20.852Z,19.18
2023-09-26T20:06:47.202Z,19.20
2023-09-26T20:09:13.600Z,19.10
2023-09-26T20:11:39.929Z,19.16
2023-09-26T20:14:06.376Z,19.14
2023-09-26T20:16:32.760Z,19.07
2023-09-26T20:18:59.140Z,19.18
2023-09-26T20:21:25.473Z,19.01
2023-09-26T20:23:51.850Z,18.92
2023-09-26T20:26:18.230Z,18.82
2023-09-26T20:28:46.234Z,18.90
2023-09-26T20:31:14.446Z,18.77
2023-09-26T20:33:40.802Z,18.85
2023-09-26T20:36:07.220Z,18.69
2023-09-26T20:38:33.646Z,18.60
2023-09-26T20:41:00.007Z,18.42
2023-09-26T20:43:26.356Z,18.62
2023-09-26T20:45:52.747Z,18.53
2023-09-26T20:48:19.112Z,18.42
2023-09-26T20:50:45.466Z,18.45
2023-09-26T20:53:11.902Z,18.54
2023-09-26T20:55:38.332Z,18.71
2023-09-26T20:58:04.694Z,18.76
2023-09-26T21:00:31.089Z,18.64
2023-09-26T21:02:57.469Z,18.79
2023-09-26T21:05:23.908Z,18.62
2023-09-26T21:07:50.368Z,18.54
2023-09-26T21:10:16.760Z,18.43
2023-09-26T21:12:43.157Z,18.56
2023-09-26T21:15:09.564Z,18.51
2023-09-26T21:17:35.957Z,18.57
2023-09-26T21:20:02.396Z,18.54
2023-09-26T21:22:28.841Z,18.61
2023-09-26T21:24:55.174Z,18.57
2023-09-26T21:27:21.535Z,18.46
2023-09-26T21:29:47.898Z,18.42
2023-09-26T21:32:14.359Z,18.30
2023-09-26T21:34:40.772Z,18.26
2023-09-26T21:37:07.219Z,18.40
2023-09-26T21:39:33.571Z,18.42
2023-09-26T21:41:59.927Z,18.42
2023-09-26T21:44:26.350Z,18.24
2023-09-26T21:46:52.714Z,18.24
2023-09-26T21:49:19.141Z,18.15
2023-09-26T21:51:45.537Z,18.21
2023-09-26T21:54:11.908Z,18.19
2023-09-26T21:56:38.265Z,18.14
2023-09-26T21:59:04.750Z,18.10
2023-09-26T22:01:31.167Z,18.06
2023-09-26T22:03:57.570Z,17.96
2023-09-26T22:06:24.001Z,18.02
2023-09-26T22:08:50.347Z,17.93
2023-09-26T22:11:16.782Z,17.94
2023-09-26T22:13:43.236Z,17.97
2023-09-26T22:16:09.653Z,18.05
2023-09-26T22:18:37.006Z,17.94
2023-09-26T22:21:03.379Z,18.02
2023-09-26T22:23:29.757Z,17.92
2023-09-26T22:25:56.216Z,18.01
2023-09-26T22:28:22.644Z,17.97
2023-09-26T22:30:48.987Z,17.94
2023-09-26T22:33:15.718Z,18.02
2023-09-26T22:35:42.127Z,18.08
2023-09-26T22:38:08.521Z,18.08
2023-09-26T22:40:44.799Z,18.06
2023-09-26T22:43:16.845Z,18.04
2023-09-26T22:45:43.247Z,17.98
2023-09-26T22:48:09.738Z,17.98
2023-09-26T22:50:36.146Z,18.02
2023-09-26T22:53:02.536Z,17.77
2023-09-26T22:55:28.963Z,17.88
2023-09-26T22:57:55.356Z,17.85
2023-09-26T23:00:21.694Z,17.77
2023-09-26T23:02:48.180Z,17.65
2023-09-26T23:05:14.646Z,17.65
2023-09-26T23:07:41.011Z,17.69
2023-09-26T23:10:07.365Z,17.56
2023-09-26T23:12:33.761Z,17.56
2023-09-26T23:15:00.196Z,17.69
2023-09-26T23:17:26.612Z,17.65
2023-09-26T23:19:53.126Z,17.68
2023-09-26T23:22:19.513Z,17.64
2023-09-26T23:24:45.860Z,17.62
2023-09-26T23:27:12.302Z,17.61
2023-09-26T23:29:38.641Z,17.48
2023-09-26T23:32:05.065Z,17.49
2023-09-26T23:34:31.497Z,17.48
2023-09-26T23:36:57.928Z,17.50
2023-09-26T23:39:24.269Z,17.48
2023-09-26T23:41:50.662Z,17.49
2023-09-26T23:44:17.095Z,17.46
2023-09-26T23:46:43.504Z,17.31
2023-09-26T23:49:09.902Z,17.34
2023-09-26T23:51:36.263Z,17.28
2023-09-26T23:54:02.624Z,17.29
2023-09-26T23:56:29.045Z,17.40
2023-09-26T23:58:55.621Z,17.35
